sensor_id;sensor_type;location;lat;lon;timestamp;P1;durP1;ratioP1;P2;durP2;ratioP2
11655;SDS011;5884;43.618;1.438;2022-11-03T05:45:25;6.27;;;2.80;;
11655;SDS011;5884;43.618;1.438;2022-11-03T05:47:57;7.87;;;2.53;;
11655;SDS011;5884;43.618;1.438;2022-11-03T05:50:27;7.00;;;3.07;;
11655;SDS011;5884;43.618;1.438;2022-11-03T05:52:57;8.57;;;2.90;;
11655;SDS011;5884;43.618;1.438;2022-11-03T05:55:30;5.83;;;2.90;;
11655;SDS011;5884;43.618;1.438;2022-11-03T05:58:13;7.13;;;3.03;;
11655;SDS011;5884;43.618;1.438;2022-11-03T06:00:50;7.20;;;2.90;;
11655;SDS011;5884;43.618;1.438;2022-11-03T06:03:20;5.17;;;2.67;;
11655;SDS011;5884;43.618;1.438;2022-11-03T06:05:50;8.67;;;2.57;;
11655;SDS011;5884;43.618;1.438;2022-11-03T06:08:19;8.33;;;2.80;;
11655;SDS011;5884;43.618;1.438;2022-11-03T06:10:52;6.33;;;2.97;;
11655;SDS011;5884;43.618;1.438;2022-11-03T06:13:23;5.90;;;2.90;;
11655;SDS011;5884;43.618;1.438;2022-11-03T06:15:56;8.87;;;2.97;;
11655;SDS011;5884;43.618;1.438;2022-11-03T06:18:29;4.40;;;2.60;;
11655;SDS011;5884;43.618;1.438;2022-11-03T06:21:03;10.57;;;2.57;;
11655;SDS011;5884;43.618;1.438;2022-11-03T06:23:34;14.03;;;3.60;;
11655;SDS011;5884;43.618;1.438;2022-11-03T06:26:02;5.67;;;2.33;;
11655;SDS011;5884;43.618;1.438;2022-11-03T06:28:38;8.73;;;2.70;;
11655;SDS011;5884;43.618;1.438;2022-11-03T06:31:12;6.17;;;2.70;;
11655;SDS011;5884;43.618;1.438;2022-11-03T06:33:43;6.67;;;2.77;;
11655;SDS011;5884;43.618;1.438;2022-11-03T06:36:12;13.10;;;3.10;;
11655;SDS011;5884;43.618;1.438;2022-11-03T06:38:45;6.57;;;2.83;;
11655;SDS011;5884;43.618;1.438;2022-11-03T06:41:17;8.80;;;2.83;;
11655;SDS011;5884;43.618;1.438;2022-11-03T06:43:49;9.27;;;3.27;;
11655;SDS011;5884;43.618;1.438;2022-11-03T06:46:19;8.70;;;3.30;;
11655;SDS011;5884;43.618;1.438;2022-11-03T06:48:48;8.10;;;3.00;;
11655;SDS011;5884;43.618;1.438;2022-11-03T06:51:18;7.47;;;2.97;;
11655;SDS011;5884;43.618;1.438;2022-11-03T06:53:48;6.27;;;2.90;;
11655;SDS011;5884;43.618;1.438;2022-11-03T06:56:18;8.40;;;2.80;;
11655;SDS011;5884;43.618;1.438;2022-11-03T06:58:48;7.87;;;2.87;;
11655;SDS011;5884;43.618;1.438;2022-11-03T07:01:20;7.57;;;2.80;;
11655;SDS011;5884;43.618;1.438;2022-11-03T07:03:50;8.40;;;3.00;;
11655;SDS011;5884;43.618;1.438;2022-11-03T07:06:22;6.97;;;3.23;;
11655;SDS011;5884;43.618;1.438;2022-11-03T07:08:55;6.47;;;3.30;;
11655;SDS011;5884;43.618;1.438;2022-11-03T07:11:26;8.50;;;3.13;;
11655;SDS011;5884;43.618;1.438;2022-11-03T07:13:56;7.50;;;3.23;;
11655;SDS011;5884;43.618;1.438;2022-11-03T07:16:26;8.30;;;3.03;;
11655;SDS011;5884;43.618;1.438;2022-11-03T07:18:58;5.63;;;2.63;;
11655;SDS011;5884;43.618;1.438;2022-11-03T07:21:35;9.00;;;2.73;;
11655;SDS011;5884;43.618;1.438;2022-11-03T07:24:11;8.80;;;3.47;;
11655;SDS011;5884;43.618;1.438;2022-11-03T07:26:42;7.33;;;2.70;;
11655;SDS011;5884;43.618;1.438;2022-11-03T07:29:11;10.83;;;3.17;;
11655;SDS011;5884;43.618;1.438;2022-11-03T07:31:46;6.13;;;3.10;;
11655;SDS011;5884;43.618;1.438;2022-11-03T07:34:14;7.13;;;2.90;;
11655;SDS011;5884;43.618;1.438;2022-11-03T07:36:47;9.43;;;3.27;;
11655;SDS011;5884;43.618;1.438;2022-11-03T07:39:17;4.90;;;3.13;;
11655;SDS011;5884;43.618;1.438;2022-11-03T07:41:46;9.87;;;3.07;;
11655;SDS011;5884;43.618;1.438;2022-11-03T07:44:15;9.23;;;2.80;;
11655;SDS011;5884;43.618;1.438;2022-11-03T07:46:47;6.93;;;2.97;;
11655;SDS011;5884;43.618;1.438;2022-11-03T07:49:19;7.37;;;3.10;;
11655;SDS011;5884;43.618;1.438;2022-11-03T07:51:52;10.67;;;3.57;;
11655;SDS011;5884;43.618;1.438;2022-11-03T07:54:21;11.03;;;3.10;;
11655;SDS011;5884;43.618;1.438;2022-11-03T07:56:53;9.83;;;3.47;;
11655;SDS011;5884;43.618;1.438;2022-11-03T07:59:25;11.17;;;3.27;;
11655;SDS011;5884;43.618;1.438;2022-11-03T08:01:59;7.57;;;3.17;;
11655;SDS011;5884;43.618;1.438;2022-11-03T08:04:27;8.37;;;2.90;;
11655;SDS011;5884;43.618;1.438;2022-11-03T08:06:57;8.50;;;3.23;;
11655;SDS011;5884;43.618;1.438;2022-11-03T08:09:24;6.87;;;3.17;;
11655;SDS011;5884;43.618;1.438;2022-11-03T08:11:51;8.23;;;3.17;;
11655;SDS011;5884;43.618;1.438;2022-11-03T08:14:19;10.23;;;3.30;;
11655;SDS011;5884;43.618;1.438;2022-11-03T08:16:46;9.27;;;3.10;;
11655;SDS011;5884;43.618;1.438;2022-11-03T08:19:14;6.37;;;3.40;;
11655;SDS011;5884;43.618;1.438;2022-11-03T08:21:42;9.93;;;3.50;;
11655;SDS011;5884;43.618;1.438;2022-11-03T08:24:09;9.77;;;3.40;;
11655;SDS011;5884;43.618;1.438;2022-11-03T08:26:36;13.60;;;4.07;;
11655;SDS011;5884;43.618;1.438;2022-11-03T08:29:03;15.37;;;4.50;;
11655;SDS011;5884;43.618;1.438;2022-11-03T08:31:30;13.93;;;4.10;;
11655;SDS011;5884;43.618;1.438;2022-11-03T08:33:58;10.37;;;3.63;;
11655;SDS011;5884;43.618;1.438;2022-11-03T08:36:26;7.23;;;3.20;;
11655;SDS011;5884;43.618;1.438;2022-11-03T08:38:53;6.93;;;3.40;;
11655;SDS011;5884;43.618;1.438;2022-11-03T08:41:20;11.90;;;3.83;;
11655;SDS011;5884;43.618;1.438;2022-11-03T08:43:48;11.33;;;3.47;;
11655;SDS011;5884;43.618;1.438;2022-11-03T08:46:15;8.57;;;3.30;;
11655;SDS011;5884;43.618;1.438;2022-11-03T08:48:42;8.83;;;3.77;;
11655;SDS011;5884;43.618;1.438;2022-11-03T08:51:10;8.20;;;3.70;;
11655;SDS011;5884;43.618;1.438;2022-11-03T08:53:39;11.27;;;4.00;;
11655;SDS011;5884;43.618;1.438;2022-11-03T08:56:07;8.50;;;4.10;;
11655;SDS011;5884;43.618;1.438;2022-11-03T08:58:35;10.67;;;4.00;;
11655;SDS011;5884;43.618;1.438;2022-11-03T09:01:02;13.83;;;4.10;;
11655;SDS011;5884;43.618;1.438;2022-11-03T09:03:30;6.83;;;3.70;;
11655;SDS011;5884;43.618;1.438;2022-11-03T09:05:57;8.87;;;3.50;;
11655;SDS011;5884;43.618;1.438;2022-11-03T09:08:24;10.10;;;4.20;;
11655;SDS011;5884;43.618;1.438;2022-11-03T09:10:53;11.83;;;3.67;;
11655;SDS011;5884;43.618;1.438;2022-11-03T09:13:20;9.73;;;3.70;;
11655;SDS011;5884;43.618;1.438;2022-11-03T09:15:47;10.97;;;3.87;;
11655;SDS011;5884;43.618;1.438;2022-11-03T09:18:14;11.90;;;4.53;;
11655;SDS011;5884;43.618;1.438;2022-11-03T09:20:42;12.83;;;4.20;;
11655;SDS011;5884;43.618;1.438;2022-11-03T09:23:09;11.90;;;4.53;;
11655;SDS011;5884;43.618;1.438;2022-11-03T09:25:36;11.87;;;4.40;;
11655;SDS011;5884;43.618;1.438;2022-11-03T09:28:05;7.90;;;4.30;;
11655;SDS011;5884;43.618;1.438;2022-11-03T09:30:32;13.00;;;4.70;;
11655;SDS011;5884;43.618;1.438;2022-11-03T09:32:59;12.13;;;4.27;;
11655;SDS011;5884;43.618;1.438;2022-11-03T09:35:27;11.37;;;4.87;;
11655;SDS011;5884;43.618;1.438;2022-11-03T09:37:54;11.90;;;5.10;;
11655;SDS011;5884;43.618;1.438;2022-11-03T09:40:21;11.53;;;4.60;;
11655;SDS011;5884;43.618;1.438;2022-11-03T09:42:49;12.43;;;5.00;;
11655;SDS011;5884;43.618;1.438;2022-11-03T09:45:18;10.60;;;4.77;;
11655;SDS011;5884;43.618;1.438;2022-11-03T09:47:46;10.90;;;5.17;;
11655;SDS011;5884;43.618;1.438;2022-11-03T09:50:13;7.27;;;4.17;;
11655;SDS011;5884;43.618;1.438;2022-11-03T09:52:44;10.83;;;4.40;;
11655;SDS011;5884;43.618;1.438;2022-11-03T09:55:12;8.73;;;4.67;;
11655;SDS011;5884;43.618;1.438;2022-11-03T09:57:42;14.00;;;5.20;;
11655;SDS011;5884;43.618;1.438;2022-11-03T10:00:15;9.43;;;4.87;;
11655;SDS011;5884;43.618;1.438;2022-11-03T10:02:47;10.00;;;4.90;;
11655;SDS011;5884;43.618;1.438;2022-11-03T10:05:17;12.17;;;4.87;;
11655;SDS011;5884;43.618;1.438;2022-11-03T10:07:49;11.13;;;4.93;;
11655;SDS011;5884;43.618;1.438;2022-11-03T10:10:18;8.63;;;4.30;;
11655;SDS011;5884;43.618;1.438;2022-11-03T10:12:47;11.40;;;4.90;;
11655;SDS011;5884;43.618;1.438;2022-11-03T10:15:19;14.10;;;4.50;;
11655;SDS011;5884;43.618;1.438;2022-11-03T10:17:48;11.20;;;4.57;;
11655;SDS011;5884;43.618;1.438;2022-11-03T10:20:16;13.27;;;4.50;;
11655;SDS011;5884;43.618;1.438;2022-11-03T10:22:46;13.17;;;4.53;;
11655;SDS011;5884;43.618;1.438;2022-11-03T10:25:29;10.93;;;4.67;;
11655;SDS011;5884;43.618;1.438;2022-11-03T10:28:12;14.47;;;4.43;;
11655;SDS011;5884;43.618;1.438;2022-11-03T10:30:56;9.23;;;4.30;;
11655;SDS011;5884;43.618;1.438;2022-11-03T10:33:25;10.10;;;4.27;;
11655;SDS011;5884;43.618;1.438;2022-11-03T10:35:56;11.73;;;4.47;;
11655;SDS011;5884;43.618;1.438;2022-11-03T10:38:24;14.47;;;4.63;;
11655;SDS011;5884;43.618;1.438;2022-11-03T10:40:55;13.83;;;4.87;;
11655;SDS011;5884;43.618;1.438;2022-11-03T10:43:23;12.37;;;4.57;;
11655;SDS011;5884;43.618;1.438;2022-11-03T10:45:56;10.23;;;4.60;;
11655;SDS011;5884;43.618;1.438;2022-11-03T10:48:37;10.57;;;4.30;;
11655;SDS011;5884;43.618;1.438;2022-11-03T10:51:04;13.93;;;4.53;;
11655;SDS011;5884;43.618;1.438;2022-11-03T10:53:36;11.13;;;4.70;;
11655;SDS011;5884;43.618;1.438;2022-11-03T10:56:04;11.40;;;5.13;;
11655;SDS011;5884;43.618;1.438;2022-11-03T10:58:31;9.40;;;4.70;;
11655;SDS011;5884;43.618;1.438;2022-11-03T11:01:03;12.10;;;4.53;;
11655;SDS011;5884;43.618;1.438;2022-11-03T11:03:32;14.20;;;4.63;;
11655;SDS011;5884;43.618;1.438;2022-11-03T11:06:03;14.93;;;4.83;;
11655;SDS011;5884;43.618;1.438;2022-11-03T11:08:31;9.70;;;4.13;;
11655;SDS011;5884;43.618;1.438;2022-11-03T11:10:58;7.50;;;3.97;;
11655;SDS011;5884;43.618;1.438;2022-11-03T11:13:32;10.77;;;4.23;;
11655;SDS011;5884;43.618;1.438;2022-11-03T11:15:59;9.73;;;4.90;;
11655;SDS011;5884;43.618;1.438;2022-11-03T11:21:59;10.83;;;5.60;;
11655;SDS011;5884;43.618;1.438;2022-11-03T11:33:25;11.03;;;4.20;;
11655;SDS011;5884;43.618;1.438;2022-11-03T11:38:58;8.27;;;4.27;;
11655;SDS011;5884;43.618;1.438;2022-11-03T11:44:51;12.60;;;5.43;;
11655;SDS011;5884;43.618;1.438;2022-11-03T11:47:27;10.33;;;5.13;;
11655;SDS011;5884;43.618;1.438;2022-11-03T11:55:48;11.30;;;5.87;;
11655;SDS011;5884;43.618;1.438;2022-11-03T11:58:23;10.30;;;5.33;;
11655;SDS011;5884;43.618;1.438;2022-11-03T12:00:57;12.90;;;5.87;;
11655;SDS011;5884;43.618;1.438;2022-11-03T12:03:28;12.00;;;5.10;;
11655;SDS011;5884;43.618;1.438;2022-11-03T12:06:12;9.00;;;5.47;;
11655;SDS011;5884;43.618;1.438;2022-11-03T12:08:40;8.73;;;5.00;;
11655;SDS011;5884;43.618;1.438;2022-11-03T12:11:09;14.17;;;5.50;;
11655;SDS011;5884;43.618;1.438;2022-11-03T12:13:41;14.77;;;6.23;;
11655;SDS011;5884;43.618;1.438;2022-11-03T12:16:28;14.77;;;5.63;;
11655;SDS011;5884;43.618;1.438;2022-11-03T12:22:07;11.40;;;5.70;;
11655;SDS011;5884;43.618;1.438;2022-11-03T12:24:37;10.33;;;5.63;;
11655;SDS011;5884;43.618;1.438;2022-11-03T12:27:38;13.47;;;5.73;;
11655;SDS011;5884;43.618;1.438;2022-11-03T12:30:11;11.30;;;5.67;;
11655;SDS011;5884;43.618;1.438;2022-11-03T12:32:41;12.13;;;6.37;;
11655;SDS011;5884;43.618;1.438;2022-11-03T12:35:09;21.53;;;6.10;;
11655;SDS011;5884;43.618;1.438;2022-11-03T12:37:39;16.03;;;6.10;;
11655;SDS011;5884;43.618;1.438;2022-11-03T12:40:07;10.77;;;5.10;;
11655;SDS011;5884;43.618;1.438;2022-11-03T12:42:37;10.93;;;5.00;;
11655;SDS011;5884;43.618;1.438;2022-11-03T12:45:05;10.07;;;5.03;;
11655;SDS011;5884;43.618;1.438;2022-11-03T12:47:33;13.23;;;5.63;;
11655;SDS011;5884;43.618;1.438;2022-11-03T12:50:01;10.93;;;4.73;;
11655;SDS011;5884;43.618;1.438;2022-11-03T12:52:29;9.73;;;4.53;;
11655;SDS011;5884;43.618;1.438;2022-11-03T12:54:58;10.07;;;4.47;;
11655;SDS011;5884;43.618;1.438;2022-11-03T12:57:25;10.93;;;4.77;;
11655;SDS011;5884;43.618;1.438;2022-11-03T12:59:52;13.87;;;4.80;;
11655;SDS011;5884;43.618;1.438;2022-11-03T13:02:19;8.90;;;4.40;;
11655;SDS011;5884;43.618;1.438;2022-11-03T13:04:46;9.67;;;4.60;;
11655;SDS011;5884;43.618;1.438;2022-11-03T13:07:14;9.73;;;4.17;;
11655;SDS011;5884;43.618;1.438;2022-11-03T13:09:41;10.00;;;4.47;;
11655;SDS011;5884;43.618;1.438;2022-11-03T13:12:11;7.67;;;4.40;;
11655;SDS011;5884;43.618;1.438;2022-11-03T13:14:56;9.27;;;4.63;;
11655;SDS011;5884;43.618;1.438;2022-11-03T13:17:24;9.67;;;4.90;;
11655;SDS011;5884;43.618;1.438;2022-11-03T13:19:51;8.60;;;3.90;;
11655;SDS011;5884;43.618;1.438;2022-11-03T13:22:18;11.47;;;4.17;;
11655;SDS011;5884;43.618;1.438;2022-11-03T13:24:46;11.03;;;4.17;;
11655;SDS011;5884;43.618;1.438;2022-11-03T13:27:14;12.50;;;4.43;;
11655;SDS011;5884;43.618;1.438;2022-11-03T13:29:42;11.93;;;4.77;;
11655;SDS011;5884;43.618;1.438;2022-11-03T13:32:09;7.10;;;3.80;;
11655;SDS011;5884;43.618;1.438;2022-11-03T13:34:36;15.43;;;3.93;;
11655;SDS011;5884;43.618;1.438;2022-11-03T13:37:03;10.90;;;4.13;;
11655;SDS011;5884;43.618;1.438;2022-11-03T13:39:30;7.83;;;4.10;;
11655;SDS011;5884;43.618;1.438;2022-11-03T13:41:58;10.20;;;4.00;;
11655;SDS011;5884;43.618;1.438;2022-11-03T13:44:27;7.00;;;3.93;;
11655;SDS011;5884;43.618;1.438;2022-11-03T13:46:54;8.03;;;4.00;;
11655;SDS011;5884;43.618;1.438;2022-11-03T13:49:21;8.33;;;3.70;;
11655;SDS011;5884;43.618;1.438;2022-11-03T13:51:49;9.30;;;4.30;;
11655;SDS011;5884;43.618;1.438;2022-11-03T13:54:16;12.23;;;4.70;;
11655;SDS011;5884;43.618;1.438;2022-11-03T13:56:43;10.80;;;3.80;;
11655;SDS011;5884;43.618;1.438;2022-11-03T13:59:10;6.57;;;3.47;;
11655;SDS011;5884;43.618;1.438;2022-11-03T14:01:39;10.23;;;3.73;;
11655;SDS011;5884;43.618;1.438;2022-11-03T14:04:06;8.50;;;3.87;;
11655;SDS011;5884;43.618;1.438;2022-11-03T14:06:33;8.70;;;3.37;;
11655;SDS011;5884;43.618;1.438;2022-11-03T14:09:01;9.83;;;3.60;;
11655;SDS011;5884;43.618;1.438;2022-11-03T14:11:28;14.70;;;3.63;;
11655;SDS011;5884;43.618;1.438;2022-11-03T14:14:24;9.80;;;3.57;;
11655;SDS011;5884;43.618;1.438;2022-11-03T14:16:53;7.67;;;3.63;;
11655;SDS011;5884;43.618;1.438;2022-11-03T14:19:20;5.50;;;3.30;;
11655;SDS011;5884;43.618;1.438;2022-11-03T14:21:48;5.53;;;3.57;;
11655;SDS011;5884;43.618;1.438;2022-11-03T14:24:15;6.70;;;3.30;;
11655;SDS011;5884;43.618;1.438;2022-11-03T14:26:42;12.50;;;3.80;;
11655;SDS011;5884;43.618;1.438;2022-11-03T14:29:09;9.00;;;3.60;;
11655;SDS011;5884;43.618;1.438;2022-11-03T14:31:37;8.00;;;3.63;;
11655;SDS011;5884;43.618;1.438;2022-11-03T14:34:05;8.60;;;3.83;;
11655;SDS011;5884;43.618;1.438;2022-11-03T14:36:32;6.47;;;3.57;;
11655;SDS011;5884;43.618;1.438;2022-11-03T14:39:00;8.73;;;3.60;;
11655;SDS011;5884;43.618;1.438;2022-11-03T14:41:27;8.50;;;3.10;;
11655;SDS011;5884;43.618;1.438;2022-11-03T14:44:26;9.37;;;3.13;;
11655;SDS011;5884;43.618;1.438;2022-11-03T14:46:53;7.40;;;3.60;;
11655;SDS011;5884;43.618;1.438;2022-11-03T14:49:22;11.20;;;4.00;;
11655;SDS011;5884;43.618;1.438;2022-11-03T14:51:49;6.43;;;3.67;;
11655;SDS011;5884;43.618;1.438;2022-11-03T14:54:17;6.13;;;3.40;;
11655;SDS011;5884;43.618;1.438;2022-11-03T14:56:44;5.57;;;3.27;;
11655;SDS011;5884;43.618;1.438;2022-11-03T14:59:11;8.63;;;3.90;;
11655;SDS011;5884;43.618;1.438;2022-11-03T15:01:39;9.57;;;3.80;;
11655;SDS011;5884;43.618;1.438;2022-11-03T15:04:06;6.27;;;3.20;;
11655;SDS011;5884;43.618;1.438;2022-11-03T15:06:34;8.37;;;3.77;;
11655;SDS011;5884;43.618;1.438;2022-11-03T15:09:02;8.20;;;4.07;;
11655;SDS011;5884;43.618;1.438;2022-11-03T15:11:30;7.87;;;3.67;;
11655;SDS011;5884;43.618;1.438;2022-11-03T15:13:57;9.80;;;3.40;;
11655;SDS011;5884;43.618;1.438;2022-11-03T15:16:24;8.00;;;3.80;;
11655;SDS011;5884;43.618;1.438;2022-11-03T15:18:52;6.60;;;3.63;;
11655;SDS011;5884;43.618;1.438;2022-11-03T15:21:19;7.97;;;3.17;;
11655;SDS011;5884;43.618;1.438;2022-11-03T15:23:47;8.87;;;3.43;;
11655;SDS011;5884;43.618;1.438;2022-11-03T15:26:15;9.30;;;3.50;;
11655;SDS011;5884;43.618;1.438;2022-11-03T15:28:42;9.30;;;4.13;;
11655;SDS011;5884;43.618;1.438;2022-11-03T15:31:09;8.20;;;3.57;;
11655;SDS011;5884;43.618;1.438;2022-11-03T15:33:36;8.97;;;3.03;;
11655;SDS011;5884;43.618;1.438;2022-11-03T15:36:04;10.33;;;1.67;;
11655;SDS011;5884;43.618;1.438;2022-11-03T15:38:32;6.73;;;1.47;;
11655;SDS011;5884;43.618;1.438;2022-11-03T15:41:01;4.33;;;1.30;;
11655;SDS011;5884;43.618;1.438;2022-11-03T15:43:44;5.47;;;1.10;;
11655;SDS011;5884;43.618;1.438;2022-11-03T15:46:13;2.30;;;1.00;;
11655;SDS011;5884;43.618;1.438;2022-11-03T15:48:41;5.90;;;0.97;;
11655;SDS011;5884;43.618;1.438;2022-11-03T15:51:09;2.60;;;1.30;;
11655;SDS011;5884;43.618;1.438;2022-11-03T15:53:36;3.23;;;1.30;;
11655;SDS011;5884;43.618;1.438;2022-11-03T15:56:05;3.57;;;0.93;;
11655;SDS011;5884;43.618;1.438;2022-11-03T15:58:33;5.03;;;1.07;;
11655;SDS011;5884;43.618;1.438;2022-11-03T16:01:01;1.70;;;1.00;;
11655;SDS011;5884;43.618;1.438;2022-11-03T16:03:29;4.20;;;1.37;;
11655;SDS011;5884;43.618;1.438;2022-11-03T16:05:56;2.33;;;0.80;;
11655;SDS011;5884;43.618;1.438;2022-11-03T16:08:24;1.47;;;0.80;;
11655;SDS011;5884;43.618;1.438;2022-11-03T16:10:51;2.87;;;1.00;;
11655;SDS011;5884;43.618;1.438;2022-11-03T16:13:20;7.80;;;0.70;;
11655;SDS011;5884;43.618;1.438;2022-11-03T16:15:47;3.30;;;0.90;;
11655;SDS011;5884;43.618;1.438;2022-11-03T16:18:15;2.53;;;0.80;;
11655;SDS011;5884;43.618;1.438;2022-11-03T16:20:42;3.60;;;1.20;;
11655;SDS011;5884;43.618;1.438;2022-11-03T16:23:09;2.53;;;0.90;;
11655;SDS011;5884;43.618;1.438;2022-11-03T16:25:36;2.00;;;0.70;;
11655;SDS011;5884;43.618;1.438;2022-11-03T16:28:04;1.23;;;0.73;;
11655;SDS011;5884;43.618;1.438;2022-11-03T16:30:32;1.17;;;0.57;;
11655;SDS011;5884;43.618;1.438;2022-11-03T16:33:02;2.47;;;0.60;;
11655;SDS011;5884;43.618;1.438;2022-11-03T16:35:29;3.00;;;0.67;;
11655;SDS011;5884;43.618;1.438;2022-11-03T16:37:56;3.20;;;0.80;;
11655;SDS011;5884;43.618;1.438;2022-11-03T16:40:24;3.67;;;0.80;;
11655;SDS011;5884;43.618;1.438;2022-11-03T16:42:51;2.77;;;1.07;;
11655;SDS011;5884;43.618;1.438;2022-11-03T16:45:19;3.40;;;0.80;;
11655;SDS011;5884;43.618;1.438;2022-11-03T16:47:51;2.20;;;0.80;;
11655;SDS011;5884;43.618;1.438;2022-11-03T16:50:18;2.73;;;1.03;;
11655;SDS011;5884;43.618;1.438;2022-11-03T16:52:47;2.07;;;0.70;;
11655;SDS011;5884;43.618;1.438;2022-11-03T16:55:15;1.70;;;0.67;;
11655;SDS011;5884;43.618;1.438;2022-11-03T16:57:44;4.10;;;0.90;;
11655;SDS011;5884;43.618;1.438;2022-11-03T17:00:12;4.40;;;0.93;;
11655;SDS011;5884;43.618;1.438;2022-11-03T17:02:41;4.33;;;1.07;;
11655;SDS011;5884;43.618;1.438;2022-11-03T17:05:11;5.23;;;1.07;;
11655;SDS011;5884;43.618;1.438;2022-11-03T17:07:41;5.07;;;1.23;;
11655;SDS011;5884;43.618;1.438;2022-11-03T17:10:09;5.40;;;1.07;;
11655;SDS011;5884;43.618;1.438;2022-11-03T17:12:36;2.70;;;1.20;;
11655;SDS011;5884;43.618;1.438;2022-11-03T17:15:04;3.53;;;1.00;;
11655;SDS011;5884;43.618;1.438;2022-11-03T17:17:32;6.37;;;1.30;;
11655;SDS011;5884;43.618;1.438;2022-11-03T17:20:00;2.83;;;0.90;;
11655;SDS011;5884;43.618;1.438;2022-11-03T17:22:29;6.03;;;1.20;;
11655;SDS011;5884;43.618;1.438;2022-11-03T17:24:56;5.17;;;1.03;;
11655;SDS011;5884;43.618;1.438;2022-11-03T17:27:23;3.90;;;1.00;;
11655;SDS011;5884;43.618;1.438;2022-11-03T17:29:54;9.60;;;1.50;;
11655;SDS011;5884;43.618;1.438;2022-11-03T17:32:24;8.63;;;1.73;;
11655;SDS011;5884;43.618;1.438;2022-11-03T17:34:55;5.20;;;1.27;;
11655;SDS011;5884;43.618;1.438;2022-11-03T17:37:23;4.83;;;1.50;;
11655;SDS011;5884;43.618;1.438;2022-11-03T17:39:52;6.87;;;1.60;;
11655;SDS011;5884;43.618;1.438;2022-11-03T17:42:21;7.40;;;2.07;;
11655;SDS011;5884;43.618;1.438;2022-11-03T17:44:51;8.07;;;1.77;;
11655;SDS011;5884;43.618;1.438;2022-11-03T17:47:21;9.77;;;1.87;;
11655;SDS011;5884;43.618;1.438;2022-11-03T17:49:49;9.10;;;1.77;;
11655;SDS011;5884;43.618;1.438;2022-11-03T17:52:17;9.27;;;1.60;;
11655;SDS011;5884;43.618;1.438;2022-11-03T17:54:47;9.87;;;2.43;;
11655;SDS011;5884;43.618;1.438;2022-11-03T17:57:16;7.17;;;2.03;;
11655;SDS011;5884;43.618;1.438;2022-11-03T17:59:47;8.27;;;2.30;;
11655;SDS011;5884;43.618;1.438;2022-11-03T18:02:16;8.73;;;2.23;;
11655;SDS011;5884;43.618;1.438;2022-11-03T18:04:47;6.40;;;1.80;;
11655;SDS011;5884;43.618;1.438;2022-11-03T18:07:17;9.80;;;2.13;;
11655;SDS011;5884;43.618;1.438;2022-11-03T18:09:46;12.13;;;2.63;;
11655;SDS011;5884;43.618;1.438;2022-11-03T18:12:16;11.80;;;2.33;;
11655;SDS011;5884;43.618;1.438;2022-11-03T18:15:03;10.73;;;2.27;;
11655;SDS011;5884;43.618;1.438;2022-11-03T18:17:33;9.63;;;2.17;;
11655;SDS011;5884;43.618;1.438;2022-11-03T18:20:01;9.03;;;2.10;;
11655;SDS011;5884;43.618;1.438;2022-11-03T18:22:28;8.80;;;1.90;;
11655;SDS011;5884;43.618;1.438;2022-11-03T18:24:55;10.07;;;2.33;;
11655;SDS011;5884;43.618;1.438;2022-11-03T18:27:24;8.23;;;2.20;;
11655;SDS011;5884;43.618;1.438;2022-11-03T18:29:51;10.10;;;1.90;;
11655;SDS011;5884;43.618;1.438;2022-11-03T18:32:18;7.47;;;1.90;;
11655;SDS011;5884;43.618;1.438;2022-11-03T18:34:46;9.00;;;2.30;;
11655;SDS011;5884;43.618;1.438;2022-11-03T18:37:13;7.70;;;1.87;;
11655;SDS011;5884;43.618;1.438;2022-11-03T18:39:40;9.83;;;2.13;;
11655;SDS011;5884;43.618;1.438;2022-11-03T18:42:10;10.97;;;2.37;;
11655;SDS011;5884;43.618;1.438;2022-11-03T18:44:40;9.67;;;1.90;;
11655;SDS011;5884;43.618;1.438;2022-11-03T18:47:08;12.50;;;2.80;;
11655;SDS011;5884;43.618;1.438;2022-11-03T18:49:36;10.07;;;2.97;;
11655;SDS011;5884;43.618;1.438;2022-11-03T18:52:05;9.90;;;2.40;;
11655;SDS011;5884;43.618;1.438;2022-11-03T18:54:39;6.70;;;2.10;;
11655;SDS011;5884;43.618;1.438;2022-11-03T18:57:10;13.90;;;3.00;;
11655;SDS011;5884;43.618;1.438;2022-11-03T18:59:39;13.80;;;2.50;;
11655;SDS011;5884;43.618;1.438;2022-11-03T19:02:12;7.40;;;2.07;;
11655;SDS011;5884;43.618;1.438;2022-11-03T19:04:43;9.00;;;2.27;;
11655;SDS011;5884;43.618;1.438;2022-11-03T19:07:11;8.80;;;2.33;;
11655;SDS011;5884;43.618;1.438;2022-11-03T19:09:42;11.43;;;2.50;;
11655;SDS011;5884;43.618;1.438;2022-11-03T19:12:10;9.87;;;2.30;;
11655;SDS011;5884;43.618;1.438;2022-11-03T19:14:42;8.33;;;2.07;;
11655;SDS011;5884;43.618;1.438;2022-11-03T19:17:12;13.20;;;2.80;;
11655;SDS011;5884;43.618;1.438;2022-11-03T19:19:42;10.57;;;2.37;;
11655;SDS011;5884;43.618;1.438;2022-11-03T19:22:11;12.07;;;2.17;;
11655;SDS011;5884;43.618;1.438;2022-11-03T19:24:39;11.83;;;2.20;;
11655;SDS011;5884;43.618;1.438;2022-11-03T19:27:08;7.73;;;2.00;;
11655;SDS011;5884;43.618;1.438;2022-11-03T19:29:43;11.30;;;2.43;;
11655;SDS011;5884;43.618;1.438;2022-11-03T19:32:13;12.33;;;2.23;;
11655;SDS011;5884;43.618;1.438;2022-11-03T19:34:43;12.93;;;2.63;;
11655;SDS011;5884;43.618;1.438;2022-11-03T19:37:11;11.83;;;3.10;;
11655;SDS011;5884;43.618;1.438;2022-11-03T19:39:39;13.90;;;3.47;;
11655;SDS011;5884;43.618;1.438;2022-11-03T19:42:10;14.97;;;3.60;;
11655;SDS011;5884;43.618;1.438;2022-11-03T19:44:54;14.27;;;2.80;;
11655;SDS011;5884;43.618;1.438;2022-11-03T19:47:22;12.87;;;2.97;;
11655;SDS011;5884;43.618;1.438;2022-11-03T19:49:51;10.97;;;2.60;;
11655;SDS011;5884;43.618;1.438;2022-11-03T19:52:19;14.80;;;2.87;;
11655;SDS011;5884;43.618;1.438;2022-11-03T19:54:50;13.17;;;2.93;;
11655;SDS011;5884;43.618;1.438;2022-11-03T19:57:19;8.67;;;2.30;;
11655;SDS011;5884;43.618;1.438;2022-11-03T19:59:46;12.40;;;3.30;;
11655;SDS011;5884;43.618;1.438;2022-11-03T20:02:15;11.27;;;2.73;;
11655;SDS011;5884;43.618;1.438;2022-11-03T20:04:42;6.57;;;1.90;;
11655;SDS011;5884;43.618;1.438;2022-11-03T20:07:11;10.10;;;2.30;;
11655;SDS011;5884;43.618;1.438;2022-11-03T20:09:39;8.03;;;2.10;;
11655;SDS011;5884;43.618;1.438;2022-11-03T20:12:08;12.23;;;2.30;;
11655;SDS011;5884;43.618;1.438;2022-11-03T20:14:39;10.33;;;2.33;;
11655;SDS011;5884;43.618;1.438;2022-11-03T20:17:09;10.17;;;2.30;;
11655;SDS011;5884;43.618;1.438;2022-11-03T20:19:40;11.23;;;2.60;;
11655;SDS011;5884;43.618;1.438;2022-11-03T20:22:09;13.57;;;2.23;;
11655;SDS011;5884;43.618;1.438;2022-11-03T20:24:40;12.43;;;2.40;;
11655;SDS011;5884;43.618;1.438;2022-11-03T20:27:08;7.27;;;2.30;;
11655;SDS011;5884;43.618;1.438;2022-11-03T20:29:36;10.73;;;2.20;;
11655;SDS011;5884;43.618;1.438;2022-11-03T20:32:04;10.73;;;2.33;;
11655;SDS011;5884;43.618;1.438;2022-11-03T20:34:32;10.40;;;2.50;;
11655;SDS011;5884;43.618;1.438;2022-11-03T20:37:00;13.77;;;2.67;;
11655;SDS011;5884;43.618;1.438;2022-11-03T20:39:28;8.23;;;2.17;;
11655;SDS011;5884;43.618;1.438;2022-11-03T20:41:55;9.30;;;2.07;;
11655;SDS011;5884;43.618;1.438;2022-11-03T20:44:22;20.53;;;3.00;;
11655;SDS011;5884;43.618;1.438;2022-11-03T20:46:49;14.07;;;2.97;;
11655;SDS011;5884;43.618;1.438;2022-11-03T20:49:16;13.27;;;2.53;;
11655;SDS011;5884;43.618;1.438;2022-11-03T20:51:45;11.90;;;2.43;;
11655;SDS011;5884;43.618;1.438;2022-11-03T20:54:14;11.73;;;2.63;;
11655;SDS011;5884;43.618;1.438;2022-11-03T20:56:44;9.10;;;2.27;;
11655;SDS011;5884;43.618;1.438;2022-11-03T20:59:12;15.27;;;2.80;;
11655;SDS011;5884;43.618;1.438;2022-11-03T21:01:41;11.20;;;2.53;;
11655;SDS011;5884;43.618;1.438;2022-11-03T21:04:12;16.93;;;3.30;;
11655;SDS011;5884;43.618;1.438;2022-11-03T21:06:41;18.37;;;2.97;;
11655;SDS011;5884;43.618;1.438;2022-11-03T21:09:09;13.83;;;2.73;;
11655;SDS011;5884;43.618;1.438;2022-11-03T21:11:39;12.90;;;2.97;;
11655;SDS011;5884;43.618;1.438;2022-11-03T21:14:11;12.40;;;2.53;;
11655;SDS011;5884;43.618;1.438;2022-11-03T21:16:40;10.30;;;2.47;;
11655;SDS011;5884;43.618;1.438;2022-11-03T21:19:26;11.80;;;2.73;;
11655;SDS011;5884;43.618;1.438;2022-11-03T21:22:22;13.13;;;2.40;;